SUMU/MVD METAR and TAF weather

Enter ICAO airport designator
Station Type Date Time Source
SUMU METAR 2021/10/24 21:00 UTC NOAA

SUMU 242100Z 30015KT CAVOK 22/04 Q1009 NOSIG


Station Type Date Time Source
SUMU Decoded METAR 2021/10/24 21:00 UTC NOAA

Carrasco, Uruguay (SUMU) 34-50S 056-00W 32M
Oct 24, 2021 - 05:00 PM EDT / 2021.10.24 2100 UTC
Wind: from the WNW (300 degrees) at 17 MPH (15 KT):0
Visibility: greater than 7 mile(s):0
Temperature: 71 F (22 C)
Dew Point: 39 F (4 C)
Relative Humidity: 30%
Pressure (altimeter): 29.80 in. Hg (1009 hPa)
ob: SUMU 242100Z 30015KT CAVOK 22/04 Q1009 NOSIG
cycle: 21

Station Type Date Time Source
SUMU TAF 2021/10/24 18:30 UTC NOAA

TAF SUMU 241730Z 2418/2518 30015KT CAVOK TX26/2518Z TN12/2510Z
TEMPO 2418/2424 33015G25KT

Example: see airport list